sensor_id;sensor_type;location;lat;lon;timestamp;pressure;altitude;pressure_sealevel;temperature;humidity
71857;BME280;63344;46.980;28.882;2023-02-12T00:01:16;101447.84;;;-0.31;59.58
71857;BME280;63344;46.980;28.882;2023-02-12T00:03:44;101443.47;;;-0.32;59.37
71857;BME280;63344;46.980;28.882;2023-02-12T00:06:12;101445.38;;;-0.23;59.04
71857;BME280;63344;46.980;28.882;2023-02-12T00:08:42;101440.16;;;-0.23;59.41
71857;BME280;63344;46.980;28.882;2023-02-12T00:11:16;101428.81;;;-0.25;59.23
71857;BME280;63344;46.980;28.882;2023-02-12T00:13:44;101439.28;;;-0.22;59.02
71857;BME280;63344;46.980;28.882;2023-02-12T00:16:14;101443.69;;;-0.19;58.82
71857;BME280;63344;46.980;28.882;2023-02-12T00:18:42;101427.97;;;-0.23;58.94
71857;BME280;63344;46.980;28.882;2023-02-12T00:21:10;101446.38;;;-0.15;59.09
71857;BME280;63344;46.980;28.882;2023-02-12T00:23:40;101438.59;;;-0.13;58.89
71857;BME280;63344;46.980;28.882;2023-02-12T00:26:09;101437.56;;;-0.20;59.33
71857;BME280;63344;46.980;28.882;2023-02-12T00:28:37;101438.59;;;-0.13;59.58
71857;BME280;63344;46.980;28.882;2023-02-12T00:31:13;101438.63;;;-0.12;59.58
71857;BME280;63344;46.980;28.882;2023-02-12T00:33:42;101422.94;;;-0.13;59.30
71857;BME280;63344;46.980;28.882;2023-02-12T00:36:22;101428.16;;;-0.13;59.21
71857;BME280;63344;46.980;28.882;2023-02-12T00:38:51;101416.84;;;-0.14;59.35
71857;BME280;63344;46.980;28.882;2023-02-12T00:41:19;101404.69;;;-0.12;59.53
71857;BME280;63344;46.980;28.882;2023-02-12T00:43:46;101409.13;;;-0.06;59.65
71857;BME280;63344;46.980;28.882;2023-02-12T00:46:15;101410.94;;;-0.01;59.76
71857;BME280;63344;46.980;28.882;2023-02-12T00:48:42;101405.84;;;0.04;59.89
71857;BME280;63344;46.980;28.882;2023-02-12T00:51:11;101401.50;;;0.06;59.98
71857;BME280;63344;46.980;28.882;2023-02-12T00:53:38;101394.56;;;0.07;59.67
71857;BME280;63344;46.980;28.882;2023-02-12T00:56:06;101385.84;;;0.08;59.78
71857;BME280;63344;46.980;28.882;2023-02-12T00:58:33;101386.84;;;0.14;61.24
71857;BME280;63344;46.980;28.882;2023-02-12T01:01:00;101383.41;;;0.17;60.49
71857;BME280;63344;46.980;28.882;2023-02-12T01:03:28;101373.00;;;0.22;60.92
71857;BME280;63344;46.980;28.882;2023-02-12T01:05:56;101380.03;;;0.26;61.86
71857;BME280;63344;46.980;28.882;2023-02-12T01:08:24;101374.03;;;0.31;62.43
71857;BME280;63344;46.980;28.882;2023-02-12T01:10:57;101379.34;;;0.37;62.03
71857;BME280;63344;46.980;28.882;2023-02-12T01:13:25;101382.94;;;0.43;62.11
71857;BME280;63344;46.980;28.882;2023-02-12T01:16:22;101385.50;;;0.41;61.08
71857;BME280;63344;46.980;28.882;2023-02-12T01:18:48;101380.22;;;0.36;60.46
71857;BME280;63344;46.980;28.882;2023-02-12T01:21:22;101376.72;;;0.36;60.67
71857;BME280;63344;46.980;28.882;2023-02-12T01:23:49;101381.03;;;0.32;60.44
71857;BME280;63344;46.980;28.882;2023-02-12T01:26:18;101372.28;;;0.30;60.80
71857;BME280;63344;46.980;28.882;2023-02-12T01:28:54;101378.38;;;0.31;61.14
71857;BME280;63344;46.980;28.882;2023-02-12T01:31:25;101383.56;;;0.28;60.51
71857;BME280;63344;46.980;28.882;2023-02-12T01:33:57;101381.66;;;0.17;60.45
71857;BME280;63344;46.980;28.882;2023-02-12T01:36:26;101364.16;;;0.12;60.72
71857;BME280;63344;46.980;28.882;2023-02-12T01:38:54;101363.31;;;0.13;60.72
71857;BME280;63344;46.980;28.882;2023-02-12T01:41:28;101366.78;;;0.13;60.39
71857;BME280;63344;46.980;28.882;2023-02-12T01:44:23;101356.34;;;0.13;60.59
71857;BME280;63344;46.980;28.882;2023-02-12T01:46:58;101364.19;;;0.13;61.39
71857;BME280;63344;46.980;28.882;2023-02-12T01:49:39;101363.25;;;0.08;61.27
71857;BME280;63344;46.980;28.882;2023-02-12T01:52:13;101377.22;;;0.10;61.46
71857;BME280;63344;46.980;28.882;2023-02-12T01:54:42;101366.69;;;0.07;61.41
71857;BME280;63344;46.980;28.882;2023-02-12T01:57:10;101365.81;;;0.07;61.68
71857;BME280;63344;46.980;28.882;2023-02-12T01:59:42;101366.75;;;0.12;61.88
71857;BME280;63344;46.980;28.882;2023-02-12T02:02:09;101380.78;;;0.17;62.04
71857;BME280;63344;46.980;28.882;2023-02-12T02:04:40;101375.63;;;0.20;62.03
71857;BME280;63344;46.980;28.882;2023-02-12T02:07:09;101384.31;;;0.19;62.07
71857;BME280;63344;46.980;28.882;2023-02-12T02:09:38;101383.56;;;0.28;62.19
71857;BME280;63344;46.980;28.882;2023-02-12T02:12:06;101380.16;;;0.33;62.27
71857;BME280;63344;46.980;28.882;2023-02-12T02:14:56;101370.59;;;0.32;62.15
71857;BME280;63344;46.980;28.882;2023-02-12T02:20:37;101356.00;;;0.50;65.02
71857;BME280;63344;46.980;28.882;2023-02-12T02:23:42;101364.25;;;0.77;66.92
71857;BME280;63344;46.980;28.882;2023-02-12T02:32:00;101359.91;;;1.54;70.63
71857;BME280;63344;46.980;28.882;2023-02-12T02:37:33;101371.53;;;1.86;70.72
71857;BME280;63344;46.980;28.882;2023-02-12T02:40:10;101384.72;;;1.95;70.24
71857;BME280;63344;46.980;28.882;2023-02-12T02:42:57;101360.31;;;1.96;70.38
71857;BME280;63344;46.980;28.882;2023-02-12T02:45:30;101362.13;;;2.06;70.66
71857;BME280;63344;46.980;28.882;2023-02-12T02:48:17;101375.28;;;2.12;70.53
71857;BME280;63344;46.980;28.882;2023-02-12T02:50:53;101372.66;;;2.15;70.38
71857;BME280;63344;46.980;28.882;2023-02-12T02:53:36;101375.34;;;2.23;70.39
71857;BME280;63344;46.980;28.882;2023-02-12T02:56:07;101385.91;;;2.28;70.48
71857;BME280;63344;46.980;28.882;2023-02-12T02:58:43;101383.28;;;2.32;71.44
71857;BME280;63344;46.980;28.882;2023-02-12T03:01:21;101376.31;;;2.33;72.01
71857;BME280;63344;46.980;28.882;2023-02-12T03:04:06;101385.97;;;2.42;72.02
71857;BME280;63344;46.980;28.882;2023-02-12T03:09:08;101392.13;;;2.45;72.43
71857;BME280;63344;46.980;28.882;2023-02-12T03:11:39;101385.97;;;2.43;73.09
71857;BME280;63344;46.980;28.882;2023-02-12T03:14:07;101383.38;;;2.45;73.25
71857;BME280;63344;46.980;28.882;2023-02-12T03:17:00;101376.38;;;2.41;74.44
71857;BME280;63344;46.980;28.882;2023-02-12T03:19:31;101385.09;;;2.39;75.03
71857;BME280;63344;46.980;28.882;2023-02-12T03:22:07;101384.22;;;2.36;75.41
71857;BME280;63344;46.980;28.882;2023-02-12T03:24:53;101376.31;;;2.34;76.19
71857;BME280;63344;46.980;28.882;2023-02-12T03:27:38;101389.38;;;2.28;77.22
71857;BME280;63344;46.980;28.882;2023-02-12T03:30:08;101391.97;;;2.25;77.21
71857;BME280;63344;46.980;28.882;2023-02-12T03:35:23;101379.72;;;2.21;78.96
71857;BME280;63344;46.980;28.882;2023-02-12T03:38:00;101384.94;;;2.21;79.00
71857;BME280;63344;46.980;28.882;2023-02-12T03:40:33;101384.94;;;2.21;78.95
71857;BME280;63344;46.980;28.882;2023-02-12T03:43:10;101391.06;;;2.22;79.56
71857;BME280;63344;46.980;28.882;2023-02-12T03:45:49;101388.41;;;2.17;79.49
71857;BME280;63344;46.980;28.882;2023-02-12T03:51:04;101386.72;;;2.25;79.86
71857;BME280;63344;46.980;28.882;2023-02-12T03:53:41;101396.34;;;2.25;79.66
71857;BME280;63344;46.980;28.882;2023-02-12T03:56:21;101384.97;;;2.23;80.39
71857;BME280;63344;46.980;28.882;2023-02-12T03:58:53;101389.34;;;2.22;80.10
71857;BME280;63344;46.980;28.882;2023-02-12T04:01:20;101386.75;;;2.27;80.72
71857;BME280;63344;46.980;28.882;2023-02-12T04:03:48;101389.38;;;2.28;80.74
71857;BME280;63344;46.980;28.882;2023-02-12T04:06:20;101394.63;;;2.28;80.86
71857;BME280;63344;46.980;28.882;2023-02-12T04:08:48;101393.81;;;2.34;80.63
71857;BME280;63344;46.980;28.882;2023-02-12T04:20:10;101404.28;;;2.37;80.97
71857;BME280;63344;46.980;28.882;2023-02-12T04:27:48;101413.91;;;2.39;81.25
71857;BME280;63344;46.980;28.882;2023-02-12T04:30:31;101420.94;;;2.45;81.21
71857;BME280;63344;46.980;28.882;2023-02-12T04:33:03;101433.22;;;2.46;81.51
71857;BME280;63344;46.980;28.882;2023-02-12T04:35:46;101416.56;;;2.43;81.44
71857;BME280;63344;46.980;28.882;2023-02-12T04:38:28;101431.47;;;2.48;81.29
71857;BME280;63344;46.980;28.882;2023-02-12T04:40:58;101433.22;;;2.49;81.30
71857;BME280;63344;46.980;28.882;2023-02-12T04:43:31;101441.13;;;2.54;81.25
71857;BME280;63344;46.980;28.882;2023-02-12T04:46:04;101434.13;;;2.53;81.14
71857;BME280;63344;46.980;28.882;2023-02-12T04:48:33;101442.00;;;2.54;81.35
71857;BME280;63344;46.980;28.882;2023-02-12T04:51:00;101449.00;;;2.57;81.08
71857;BME280;63344;46.980;28.882;2023-02-12T04:53:28;101450.78;;;2.58;81.42
71857;BME280;63344;46.980;28.882;2023-02-12T04:55:55;101449.03;;;2.60;81.33
71857;BME280;63344;46.980;28.882;2023-02-12T04:58:23;101457.81;;;2.62;81.22
71857;BME280;63344;46.980;28.882;2023-02-12T05:00:50;101453.38;;;2.59;81.16
71857;BME280;63344;46.980;28.882;2023-02-12T05:03:18;101459.53;;;2.58;81.08
71857;BME280;63344;46.980;28.882;2023-02-12T05:05:45;101456.03;;;2.61;81.43
71857;BME280;63344;46.980;28.882;2023-02-12T05:08:13;101451.63;;;2.55;81.64
71857;BME280;63344;46.980;28.882;2023-02-12T05:10:41;101470.91;;;2.62;81.50
71857;BME280;63344;46.980;28.882;2023-02-12T05:13:09;101469.13;;;2.59;81.21
71857;BME280;63344;46.980;28.882;2023-02-12T05:15:38;101471.75;;;2.59;81.60
71857;BME280;63344;46.980;28.882;2023-02-12T05:18:05;101487.53;;;2.64;81.84
71857;BME280;63344;46.980;28.882;2023-02-12T05:20:32;101475.25;;;2.62;82.37
71857;BME280;63344;46.980;28.882;2023-02-12T05:23:00;101484.84;;;2.59;82.30
71857;BME280;63344;46.980;28.882;2023-02-12T05:25:27;101490.13;;;2.61;82.67
71857;BME280;63344;46.980;28.882;2023-02-12T05:27:55;101495.31;;;2.55;82.99
71857;BME280;63344;46.980;28.882;2023-02-12T05:30:23;101501.44;;;2.57;83.15
71857;BME280;63344;46.980;28.882;2023-02-12T05:32:50;101503.19;;;2.55;83.50
71857;BME280;63344;46.980;28.882;2023-02-12T05:35:18;101499.69;;;2.54;82.99
71857;BME280;63344;46.980;28.882;2023-02-12T05:37:46;101508.44;;;2.56;83.40
71857;BME280;63344;46.980;28.882;2023-02-12T05:40:13;101504.03;;;2.51;83.43
71857;BME280;63344;46.980;28.882;2023-02-12T05:42:48;101502.28;;;2.53;83.39
71857;BME280;63344;46.980;28.882;2023-02-12T05:45:16;101511.94;;;2.54;83.44
71857;BME280;63344;46.980;28.882;2023-02-12T05:47:45;101527.69;;;2.58;83.27
71857;BME280;63344;46.980;28.882;2023-02-12T05:50:13;101518.94;;;2.59;83.07
71857;BME280;63344;46.980;28.882;2023-02-12T05:52:41;101520.75;;;2.62;83.13
71857;BME280;63344;46.980;28.882;2023-02-12T05:55:11;101533.84;;;2.65;82.90
71857;BME280;63344;46.980;28.882;2023-02-12T05:57:40;101534.78;;;2.70;83.16
71857;BME280;63344;46.980;28.882;2023-02-12T06:00:09;101535.66;;;2.71;82.79
71857;BME280;63344;46.980;28.882;2023-02-12T06:02:38;101529.56;;;2.72;82.85
71857;BME280;63344;46.980;28.882;2023-02-12T06:05:05;101534.81;;;2.72;82.79
71857;BME280;63344;46.980;28.882;2023-02-12T06:07:36;101547.94;;;2.75;82.87
71857;BME280;63344;46.980;28.882;2023-02-12T06:10:03;101554.94;;;2.77;82.61
71857;BME280;63344;46.980;28.882;2023-02-12T06:12:32;101544.44;;;2.74;82.53
71857;BME280;63344;46.980;28.882;2023-02-12T06:15:00;101568.13;;;2.84;82.38
71857;BME280;63344;46.980;28.882;2023-02-12T06:17:28;101563.75;;;2.83;82.66
71857;BME280;63344;46.980;28.882;2023-02-12T06:19:55;101576.00;;;2.87;82.72
71857;BME280;63344;46.980;28.882;2023-02-12T06:22:23;101582.13;;;2.87;82.58
71857;BME280;63344;46.980;28.882;2023-02-12T06:24:52;101588.31;;;2.92;82.33
71857;BME280;63344;46.980;28.882;2023-02-12T06:27:21;101589.22;;;2.96;82.46
71857;BME280;63344;46.980;28.882;2023-02-12T06:29:51;101588.34;;;2.97;82.36
71857;BME280;63344;46.980;28.882;2023-02-12T06:32:21;101593.63;;;3.00;82.41
71857;BME280;63344;46.980;28.882;2023-02-12T06:34:48;101587.50;;;3.01;82.30
71857;BME280;63344;46.980;28.882;2023-02-12T06:37:18;101598.03;;;3.07;81.99
71857;BME280;63344;46.980;28.882;2023-02-12T06:39:47;101601.56;;;3.08;82.26
71857;BME280;63344;46.980;28.882;2023-02-12T06:42:14;101611.19;;;3.10;82.25
71857;BME280;63344;46.980;28.882;2023-02-12T06:44:49;101603.28;;;3.06;82.08
71857;BME280;63344;46.980;28.882;2023-02-12T06:47:19;101616.44;;;3.13;81.89
71857;BME280;63344;46.980;28.882;2023-02-12T06:49:46;101610.34;;;3.13;81.87
71857;BME280;63344;46.980;28.882;2023-02-12T06:52:13;101620.03;;;3.22;81.88
71857;BME280;63344;46.980;28.882;2023-02-12T06:54:41;101612.19;;;3.26;81.51
71857;BME280;63344;46.980;28.882;2023-02-12T06:57:08;101620.09;;;3.31;81.42
71857;BME280;63344;46.980;28.882;2023-02-12T06:59:35;101618.34;;;3.30;81.18
71857;BME280;63344;46.980;28.882;2023-02-12T07:02:03;101633.25;;;3.34;81.49
71857;BME280;63344;46.980;28.882;2023-02-12T07:04:38;101630.66;;;3.38;81.14
71857;BME280;63344;46.980;28.882;2023-02-12T07:07:09;101625.50;;;3.52;81.11
71857;BME280;63344;46.980;28.882;2023-02-12T07:09:39;101637.78;;;3.56;80.88
71857;BME280;63344;46.980;28.882;2023-02-12T07:12:07;101637.78;;;3.56;80.25
71857;BME280;63344;46.980;28.882;2023-02-12T07:14:34;101642.19;;;3.57;80.60
71857;BME280;63344;46.980;28.882;2023-02-12T07:17:02;101652.69;;;3.57;80.17
71857;BME280;63344;46.980;28.882;2023-02-12T07:19:31;101661.44;;;3.58;80.39
71857;BME280;63344;46.980;28.882;2023-02-12T07:21:59;101660.56;;;3.59;80.36
71857;BME280;63344;46.980;28.882;2023-02-12T07:24:29;101659.63;;;3.55;80.57
71857;BME280;63344;46.980;28.882;2023-02-12T07:27:18;101671.00;;;3.51;80.78
71857;BME280;63344;46.980;28.882;2023-02-12T07:29:47;101659.63;;;3.48;81.02
71857;BME280;63344;46.980;28.882;2023-02-12T07:32:33;101670.94;;;3.41;82.16
71857;BME280;63344;46.980;28.882;2023-02-12T07:35:01;101667.38;;;3.34;82.27
71857;BME280;63344;46.980;28.882;2023-02-12T07:37:34;101677.00;;;3.35;82.21
71857;BME280;63344;46.980;28.882;2023-02-12T07:40:04;101670.03;;;3.38;82.52
71857;BME280;63344;46.980;28.882;2023-02-12T07:42:32;101682.31;;;3.41;82.64
71857;BME280;63344;46.980;28.882;2023-02-12T07:44:59;101685.88;;;3.49;82.51
71857;BME280;63344;46.980;28.882;2023-02-12T07:47:27;101675.34;;;3.49;82.27
71857;BME280;63344;46.980;28.882;2023-02-12T07:49:54;101685.09;;;3.63;82.34
71857;BME280;63344;46.980;28.882;2023-02-12T07:52:22;101681.63;;;3.68;82.18
71857;BME280;63344;46.980;28.882;2023-02-12T07:54:54;101679.09;;;3.81;81.65
71857;BME280;63344;46.980;28.882;2023-02-12T07:57:21;101680.94;;;3.94;80.91
71857;BME280;63344;46.980;28.882;2023-02-12T07:59:49;101677.53;;;4.18;80.49
71857;BME280;63344;46.980;28.882;2023-02-12T08:02:18;101691.63;;;4.34;79.56
71857;BME280;63344;46.980;28.882;2023-02-12T08:04:46;101683.78;;;4.45;78.92
71857;BME280;63344;46.980;28.882;2023-02-12T08:07:14;101692.56;;;4.53;76.68
71857;BME280;63344;46.980;28.882;2023-02-12T08:09:42;101704.94;;;4.78;76.26
71857;BME280;63344;46.980;28.882;2023-02-12T08:12:12;101695.31;;;5.02;75.84
71857;BME280;63344;46.980;28.882;2023-02-12T08:14:40;101691.81;;;5.17;74.10
71857;BME280;63344;46.980;28.882;2023-02-12T08:17:08;101691.81;;;5.05;72.88
71857;BME280;63344;46.980;28.882;2023-02-12T08:19:37;101700.59;;;4.91;72.27
71857;BME280;63344;46.980;28.882;2023-02-12T08:22:05;101704.94;;;4.83;72.31
71857;BME280;63344;46.980;28.882;2023-02-12T08:24:33;101711.06;;;4.76;71.72
71857;BME280;63344;46.980;28.882;2023-02-12T08:27:00;101708.38;;;4.59;71.74
71857;BME280;63344;46.980;28.882;2023-02-12T08:29:28;101705.75;;;4.57;72.17
71857;BME280;63344;46.980;28.882;2023-02-12T08:32:00;101722.34;;;4.47;72.33
71857;BME280;63344;46.980;28.882;2023-02-12T08:34:30;101738.16;;;4.50;72.35
71857;BME280;63344;46.980;28.882;2023-02-12T08:37:03;101752.16;;;4.46;72.46
71857;BME280;63344;46.980;28.882;2023-02-12T08:39:38;101745.16;;;4.44;72.97
71857;BME280;63344;46.980;28.882;2023-02-12T08:42:06;101756.53;;;4.41;72.75
71857;BME280;63344;46.980;28.882;2023-02-12T08:44:33;101750.38;;;4.37;72.94
71857;BME280;63344;46.980;28.882;2023-02-12T08:47:01;101757.34;;;4.31;73.22
71857;BME280;63344;46.980;28.882;2023-02-12T08:49:30;101747.72;;;4.33;72.82
71857;BME280;63344;46.980;28.882;2023-02-12T08:51:59;101756.56;;;4.49;72.48
71857;BME280;63344;46.980;28.882;2023-02-12T08:54:30;101757.44;;;4.49;71.33
71857;BME280;63344;46.980;28.882;2023-02-12T08:57:00;101771.47;;;4.53;70.67
71857;BME280;63344;46.980;28.882;2023-02-12T08:59:28;101778.53;;;4.54;70.50
71857;BME280;63344;46.980;28.882;2023-02-12T09:01:56;101793.44;;;4.61;69.52
71857;BME280;63344;46.980;28.882;2023-02-12T09:04:26;101785.56;;;4.61;68.88
71857;BME280;63344;46.980;28.882;2023-02-12T09:07:04;101785.59;;;4.66;69.20
71857;BME280;63344;46.980;28.882;2023-02-12T09:09:35;101795.31;;;4.87;68.26
71857;BME280;63344;46.980;28.882;2023-02-12T09:12:13;101775.16;;;4.92;66.31
71857;BME280;63344;46.980;28.882;2023-02-12T09:14:41;101801.50;;;4.93;64.39
71857;BME280;63344;46.980;28.882;2023-02-12T09:17:13;101792.66;;;4.77;62.43
71857;BME280;63344;46.980;28.882;2023-02-12T09:19:42;101795.28;;;4.81;58.65
71857;BME280;63344;46.980;28.882;2023-02-12T09:22:09;101800.56;;;4.87;58.18
71857;BME280;63344;46.980;28.882;2023-02-12T09:24:37;101803.28;;;5.02;57.50
71857;BME280;63344;46.980;28.882;2023-02-12T09:27:08;101819.97;;;6.72;56.43
71857;BME280;63344;46.980;28.882;2023-02-12T09:29:40;101790.97;;;8.85;51.12
71857;BME280;63344;46.980;28.882;2023-02-12T09:32:08;101804.13;;;11.00;47.11
71857;BME280;63344;46.980;28.882;2023-02-12T09:34:36;101802.81;;;11.95;42.46
71857;BME280;63344;46.980;28.882;2023-02-12T09:37:03;101805.72;;;11.85;38.04
71857;BME280;63344;46.980;28.882;2023-02-12T09:39:31;101825.44;;;10.98;38.91
71857;BME280;63344;46.980;28.882;2023-02-12T09:45:15;101834.69;;;9.79;42.41
71857;BME280;63344;46.980;28.882;2023-02-12T09:53:15;101826.00;;;9.09;43.51
71857;BME280;63344;46.980;28.882;2023-02-12T09:55:49;101830.53;;;10.15;40.20
71857;BME280;63344;46.980;28.882;2023-02-12T10:01:26;101833.34;;;8.87;41.99
71857;BME280;63344;46.980;28.882;2023-02-12T10:03:55;101837.16;;;8.61;42.31
71857;BME280;63344;46.980;28.882;2023-02-12T10:06:34;101841.84;;;8.33;43.43
71857;BME280;63344;46.980;28.882;2023-02-12T10:15:47;101849.75;;;10.33;37.68
71857;BME280;63344;46.980;28.882;2023-02-12T10:18:01;101842.81;;;10.21;36.38
71857;BME280;63344;46.980;28.882;2023-02-12T10:20:50;101861.84;;;10.48;36.74
71857;BME280;63344;46.980;28.882;2023-02-12T10:26:14;101872.16;;;9.56;37.41
71857;BME280;63344;46.980;28.882;2023-02-12T10:28:44;101856.34;;;11.02;36.32
71857;BME280;63344;46.980;28.882;2023-02-12T10:31:31;101853.53;;;11.88;33.56
71857;BME280;63344;46.980;28.882;2023-02-12T10:34:11;101865.91;;;11.92;33.38
71857;BME280;63344;46.980;28.882;2023-02-12T10:36:41;101886.09;;;12.37;31.67
71857;BME280;63344;46.980;28.882;2023-02-12T10:41:40;101875.81;;;12.23;30.40
71857;BME280;63344;46.980;28.882;2023-02-12T10:44:30;101882.53;;;11.22;32.18
71857;BME280;63344;46.980;28.882;2023-02-12T10:47:01;101880.47;;;10.93;33.35
71857;BME280;63344;46.980;28.882;2023-02-12T10:49:31;101894.88;;;10.34;34.91
71857;BME280;63344;46.980;28.882;2023-02-12T10:54:44;101904.81;;;11.59;33.56
71857;BME280;63344;46.980;28.882;2023-02-12T10:57:18;101903.66;;;11.70;32.59
71857;BME280;63344;46.980;28.882;2023-02-12T10:59:51;101910.03;;;11.21;33.19
71857;BME280;63344;46.980;28.882;2023-02-12T11:02:31;101924.59;;;11.02;33.11
71857;BME280;63344;46.980;28.882;2023-02-12T11:05:21;101923.88;;;9.86;33.39
71857;BME280;63344;46.980;28.882;2023-02-12T11:07:50;101917.41;;;9.45;31.78
71857;BME280;63344;46.980;28.882;2023-02-12T11:12:53;101915.03;;;9.87;31.25
71857;BME280;63344;46.980;28.882;2023-02-12T11:15:25;101903.81;;;9.00;32.86
71857;BME280;63344;46.980;28.882;2023-02-12T11:17:57;101935.81;;;8.80;34.26
71857;BME280;63344;46.980;28.882;2023-02-12T11:20:50;101924.59;;;9.37;34.09
71857;BME280;63344;46.980;28.882;2023-02-12T11:23:29;101917.91;;;10.29;33.41
71857;BME280;63344;46.980;28.882;2023-02-12T11:26:04;101936.69;;;11.60;31.44
71857;BME280;63344;46.980;28.882;2023-02-12T11:28:34;101924.22;;;11.62;31.00
71857;BME280;63344;46.980;28.882;2023-02-12T11:31:19;101930.22;;;10.36;31.74
71857;BME280;63344;46.980;28.882;2023-02-12T11:36:49;101953.00;;;9.26;33.02
71857;BME280;63344;46.980;28.882;2023-02-12T11:39:29;101942.13;;;9.49;32.51
71857;BME280;63344;46.980;28.882;2023-02-12T11:42:21;101946.94;;;10.42;32.27
71857;BME280;63344;46.980;28.882;2023-02-12T11:44:54;101941.69;;;9.78;32.82
71857;BME280;63344;46.980;28.882;2023-02-12T11:47:34;101942.81;;;9.63;33.70
71857;BME280;63344;46.980;28.882;2023-02-12T11:50:29;101948.81;;;9.76;34.07
71857;BME280;63344;46.980;28.882;2023-02-12T11:53:05;101962.06;;;9.77;34.32
71857;BME280;63344;46.980;28.882;2023-02-12T11:55:39;101953.66;;;9.45;33.84
71857;BME280;63344;46.980;28.882;2023-02-12T11:58:20;101956.28;;;10.10;33.17
71857;BME280;63344;46.980;28.882;2023-02-12T12:03:25;101956.84;;;10.32;33.70
71857;BME280;63344;46.980;28.882;2023-02-12T12:06:01;101954.72;;;9.96;33.95
71857;BME280;63344;46.980;28.882;2023-02-12T12:11:37;101954.88;;;11.40;33.57
71857;BME280;63344;46.980;28.882;2023-02-12T12:14:25;101972.81;;;11.72;32.14
71857;BME280;63344;46.980;28.882;2023-02-12T12:17:07;101993.00;;;10.92;33.15
71857;BME280;63344;46.980;28.882;2023-02-12T12:20:20;101990.78;;;10.67;33.18
71857;BME280;63344;46.980;28.882;2023-02-12T12:22:56;101995.41;;;11.07;32.40
71857;BME280;63344;46.980;28.882;2023-02-12T12:25:39;101998.34;;;10.39;32.50
71857;BME280;63344;46.980;28.882;2023-02-12T12:28:25;102003.97;;;10.73;32.06
71857;BME280;63344;46.980;28.882;2023-02-12T12:31:26;102000.75;;;11.06;32.10
71857;BME280;63344;46.980;28.882;2023-02-12T12:51:16;102014.56;;;10.76;31.90
71857;BME280;63344;46.980;28.882;2023-02-12T13:13:40;102046.16;;;6.59;37.67
71857;BME280;63344;46.980;28.882;2023-02-12T13:24:48;102062.88;;;6.66;37.02
71857;BME280;63344;46.980;28.882;2023-02-12T13:27:23;102065.50;;;6.76;37.37
71857;BME280;63344;46.980;28.882;2023-02-12T13:35:27;102066.31;;;6.23;37.31
71857;BME280;63344;46.980;28.882;2023-02-12T13:37:55;102068.13;;;6.44;37.89
71857;BME280;63344;46.980;28.882;2023-02-12T13:40:26;102070.75;;;6.40;38.40
71857;BME280;63344;46.980;28.882;2023-02-12T13:46:11;102076.88;;;7.54;37.71
71857;BME280;63344;46.980;28.882;2023-02-12T13:57:16;102100.59;;;6.15;38.39
71857;BME280;63344;46.980;28.882;2023-02-12T13:59:54;102107.44;;;5.78;39.77
71857;BME280;63344;46.980;28.882;2023-02-12T14:07:45;102107.44;;;5.79;39.55
71857;BME280;63344;46.980;28.882;2023-02-12T14:12:50;102118.91;;;5.83;38.47
71857;BME280;63344;46.980;28.882;2023-02-12T14:15:32;102126.63;;;5.55;39.47
71857;BME280;63344;46.980;28.882;2023-02-12T14:21:32;102126.94;;;4.85;42.26
71857;BME280;63344;46.980;28.882;2023-02-12T14:23:45;102131.22;;;4.69;42.90
71857;BME280;63344;46.980;28.882;2023-02-12T14:26:18;102124.97;;;4.59;42.68
71857;BME280;63344;46.980;28.882;2023-02-12T14:29:03;102123.34;;;4.74;42.05
71857;BME280;63344;46.980;28.882;2023-02-12T14:31:34;102138.66;;;5.21;40.16
71857;BME280;63344;46.980;28.882;2023-02-12T14:41:48;102146.75;;;4.49;41.13
71857;BME280;63344;46.980;28.882;2023-02-12T14:47:04;102157.81;;;4.19;41.68
71857;BME280;63344;46.980;28.882;2023-02-12T14:49:39;102155.09;;;4.10;42.19
71857;BME280;63344;46.980;28.882;2023-02-12T14:52:17;102157.63;;;4.05;41.93
71857;BME280;63344;46.980;28.882;2023-02-12T14:55:04;102167.19;;;3.95;42.79
71857;BME280;63344;46.980;28.882;2023-02-12T14:57:58;102171.50;;;3.92;43.19
71857;BME280;63344;46.980;28.882;2023-02-12T15:01:03;102175.72;;;3.81;43.66
71857;BME280;63344;46.980;28.882;2023-02-12T15:04:15;102189.63;;;3.72;44.26
71857;BME280;63344;46.980;28.882;2023-02-12T15:07:06;102200.03;;;3.66;45.02
71857;BME280;63344;46.980;28.882;2023-02-12T15:09:54;102210.38;;;3.56;44.33
71857;BME280;63344;46.980;28.882;2023-02-12T15:12:31;102200.66;;;3.51;44.50
71857;BME280;63344;46.980;28.882;2023-02-12T15:15:05;102217.25;;;3.48;44.09
71857;BME280;63344;46.980;28.882;2023-02-12T15:17:40;102232.16;;;3.49;44.31
71857;BME280;63344;46.980;28.882;2023-02-12T15:20:23;102229.38;;;3.40;44.23
71857;BME280;63344;46.980;28.882;2023-02-12T15:22:50;102231.09;;;3.38;45.13
71857;BME280;63344;46.980;28.882;2023-02-12T15:25:25;102244.97;;;3.31;45.43
71857;BME280;63344;46.980;28.882;2023-02-12T15:30:29;102258.69;;;3.14;46.42
71857;BME280;63344;46.980;28.882;2023-02-12T15:33:00;102258.66;;;3.13;46.91
71857;BME280;63344;46.980;28.882;2023-02-12T15:35:31;102272.66;;;3.12;47.17
71857;BME280;63344;46.980;28.882;2023-02-12T15:38:00;102264.63;;;3.04;46.92
71857;BME280;63344;46.980;28.882;2023-02-12T15:40:37;102278.47;;;2.97;46.74
71857;BME280;63344;46.980;28.882;2023-02-12T15:43:19;102279.28;;;2.93;46.06
71857;BME280;63344;46.980;28.882;2023-02-12T15:45:51;102277.41;;;2.86;46.28
71857;BME280;63344;46.980;28.882;2023-02-12T15:48:29;102268.59;;;2.82;46.15
71857;BME280;63344;46.980;28.882;2023-02-12T15:53:28;102280.63;;;2.72;45.52
71857;BME280;63344;46.980;28.882;2023-02-12T15:56:00;102280.53;;;2.68;45.42
71857;BME280;63344;46.980;28.882;2023-02-12T15:58:35;102283.91;;;2.62;45.86